createdAt,value
2022-08-04T00:02:11.259Z,10.20
2022-08-04T00:07:44.775Z,10.50
2022-08-04T00:12:51.264Z,9.30
2022-08-04T00:18:04.978Z,9.70
2022-08-04T00:23:09.759Z,10.80
2022-08-04T00:28:13.973Z,9.80
2022-08-04T00:33:21.072Z,9.20
2022-08-04T00:38:25.850Z,10.00
2022-08-04T00:44:04.403Z,9.50
2022-08-04T00:49:28.342Z,10.00
2022-08-04T00:54:38.512Z,9.70
2022-08-04T01:00:02.959Z,10.60
2022-08-04T01:05:37.970Z,8.90
2022-08-04T01:10:59.151Z,9.40
2022-08-04T01:16:08.294Z,9.90
2022-08-04T01:21:29.507Z,9.40
2022-08-04T01:26:42.512Z,9.50
2022-08-04T01:31:58.409Z,10.30
2022-08-04T01:37:56.075Z,10.00
2022-08-04T01:43:02.221Z,9.70
2022-08-04T01:48:07.947Z,9.50
2022-08-04T01:53:11.542Z,9.60
2022-08-04T01:58:18.297Z,9.60
2022-08-04T02:03:21.316Z,9.90
2022-08-04T02:14:42.986Z,9.60
2022-08-04T02:19:48.729Z,9.30
2022-08-04T02:25:05.231Z,9.20
2022-08-04T02:30:09.161Z,9.60
2022-08-04T02:35:20.915Z,9.10
2022-08-04T02:40:26.857Z,9.60
2022-08-04T02:45:32.259Z,9.70
2022-08-04T02:50:37.516Z,10.10
2022-08-04T02:55:50.448Z,10.30
2022-08-04T03:00:54.515Z,9.70
2022-08-04T03:06:41.784Z,10.20
2022-08-04T03:12:23.041Z,9.80
2022-08-04T03:17:53.814Z,10.20
2022-08-04T03:23:50.828Z,9.60
2022-08-04T03:29:36.418Z,8.90
2022-08-04T03:35:47.514Z,9.60
2022-08-04T03:41:50.857Z,9.40
2022-08-04T03:46:46.774Z,9.60
2022-08-04T03:52:27.416Z,9.70
2022-08-04T03:58:30.637Z,10.00
2022-08-04T04:04:09.574Z,10.30
2022-08-04T04:09:58.001Z,10.70
2022-08-04T04:15:31.504Z,9.70
2022-08-04T04:21:14.260Z,10.20
2022-08-04T04:26:35.038Z,10.10
2022-08-04T04:32:03.091Z,10.50
2022-08-04T04:37:51.250Z,10.00
2022-08-04T04:43:11.947Z,10.30
2022-08-04T04:48:48.758Z,10.80
2022-08-04T04:54:00.594Z,10.70
2022-08-04T04:59:10.246Z,10.10
2022-08-04T05:04:35.035Z,10.80
2022-08-04T05:10:34.687Z,11.10
2022-08-04T05:15:43.517Z,11.20
2022-08-04T05:20:57.456Z,11.60
2022-08-04T05:26:09.023Z,11.50
2022-08-04T05:31:19.177Z,11.00
2022-08-04T05:36:41.091Z,12.10
2022-08-04T05:46:59.335Z,10.30
2022-08-04T05:52:04.827Z,10.60
2022-08-04T05:57:10.028Z,10.40
2022-08-04T06:02:18.011Z,10.20
2022-08-04T06:07:21.719Z,10.00
2022-08-04T06:12:36.441Z,9.00
2022-08-04T06:18:33.814Z,9.00
2022-08-04T06:28:20.132Z,7.80
2022-08-04T06:33:54.252Z,8.00
2022-08-04T06:39:01.417Z,7.50
2022-08-04T06:44:10.180Z,6.80
2022-08-04T06:49:14.157Z,7.60
2022-08-04T06:54:17.240Z,7.50
2022-08-04T06:59:24.445Z,6.40
2022-08-04T07:04:28.379Z,6.00
2022-08-04T07:09:32.004Z,5.40
2022-08-04T07:14:36.679Z,5.40
2022-08-04T07:19:39.709Z,5.30
2022-08-04T07:24:43.313Z,5.60
2022-08-04T07:29:48.418Z,5.60
2022-08-04T07:34:52.748Z,5.10
2022-08-04T07:39:56.420Z,5.70
2022-08-04T07:44:59.842Z,5.10
2022-08-04T07:50:04.571Z,5.00
2022-08-04T07:55:08.482Z,5.00
2022-08-04T08:00:15.199Z,5.30
2022-08-04T08:05:20.629Z,5.30
2022-08-04T08:10:25.563Z,5.00
2022-08-04T08:15:29.097Z,4.90
2022-08-04T08:20:35.593Z,4.70
2022-08-04T08:25:38.993Z,4.70
2022-08-04T08:30:41.998Z,4.80
2022-08-04T08:36:03.743Z,4.30
2022-08-04T08:41:18.971Z,4.30
2022-08-04T08:46:49.889Z,4.50
2022-08-04T08:52:05.112Z,4.50
2022-08-04T08:57:59.550Z,4.20
2022-08-04T09:03:34.412Z,4.50
2022-08-04T09:08:46.212Z,4.50
2022-08-04T09:13:57.339Z,4.30
2022-08-04T09:19:38.766Z,4.20
2022-08-04T09:25:09.079Z,4.40
2022-08-04T09:30:17.705Z,4.40
2022-08-04T09:35:49.173Z,5.20
2022-08-04T09:41:40.107Z,4.60
2022-08-04T09:47:00.194Z,4.80
2022-08-04T09:52:31.280Z,5.10
2022-08-04T09:57:53.645Z,5.10
2022-08-04T10:03:01.215Z,6.10
2022-08-04T10:08:18.795Z,5.30
2022-08-04T10:14:27.065Z,5.50
2022-08-04T10:19:37.710Z,5.90
2022-08-04T10:25:37.444Z,5.30
2022-08-04T10:31:01.651Z,4.70
2022-08-04T10:36:13.441Z,5.10
2022-08-04T10:41:42.646Z,5.20
2022-08-04T10:46:55.956Z,4.90
2022-08-04T10:52:17.077Z,5.50
2022-08-04T10:57:33.251Z,5.60
2022-08-04T11:02:45.191Z,4.90
2022-08-04T11:07:54.090Z,5.10
2022-08-04T11:13:29.819Z,4.90
2022-08-04T11:19:09.062Z,4.90
2022-08-04T11:24:34.091Z,4.80
2022-08-04T11:30:07.489Z,4.90
2022-08-04T11:35:26.595Z,4.80
2022-08-04T11:41:02.865Z,5.00
2022-08-04T11:46:18.624Z,5.10
2022-08-04T11:51:23.590Z,5.20
2022-08-04T11:56:37.194Z,5.20
2022-08-04T12:01:44.011Z,5.30
2022-08-04T12:13:21.511Z,4.80
2022-08-04T12:18:43.359Z,5.10
2022-08-04T12:23:49.838Z,5.60
2022-08-04T12:29:11.504Z,5.90
2022-08-04T12:34:31.116Z,5.60
2022-08-04T12:40:21.313Z,5.80
2022-08-04T12:45:09.274Z,5.70
2022-08-04T12:50:16.870Z,5.10
2022-08-04T12:55:24.364Z,5.20
2022-08-04T13:00:40.015Z,4.40
2022-08-04T13:05:45.819Z,4.50
2022-08-04T13:10:53.924Z,4.60
2022-08-04T13:15:59.841Z,4.70
2022-08-04T13:22:02.312Z,4.40
2022-08-04T13:27:16.422Z,4.30
2022-08-04T13:32:23.875Z,4.70
2022-08-04T13:37:37.328Z,12.10
2022-08-04T13:42:46.706Z,51.00
2022-08-04T13:47:58.434Z,8.70
2022-08-04T13:53:21.998Z,15.80
2022-08-04T13:58:26.725Z,10.60
2022-08-04T14:03:53.367Z,129.20
2022-08-04T14:09:19.957Z,67.20
2022-08-04T14:14:28.479Z,30.90
2022-08-04T14:19:46.669Z,43.80
2022-08-04T14:25:04.501Z,33.60
2022-08-04T14:30:35.480Z,15.40
2022-08-04T14:35:50.195Z,7.70
2022-08-04T14:41:00.076Z,6.90
2022-08-04T14:46:06.196Z,13.70
2022-08-04T14:51:17.007Z,44.10
2022-08-04T14:56:46.917Z,25.30
2022-08-04T15:02:00.351Z,4.50
2022-08-04T15:07:05.494Z,3.80
2022-08-04T15:12:10.642Z,6.10
2022-08-04T15:17:29.362Z,12.20
2022-08-04T15:22:33.864Z,5.10
2022-08-04T15:27:40.733Z,4.70
2022-08-04T15:32:52.278Z,3.60
2022-08-04T15:37:58.824Z,4.50
2022-08-04T15:43:16.505Z,4.40
2022-08-04T15:48:20.233Z,3.60
2022-08-04T15:53:23.749Z,3.70
2022-08-04T15:58:55.290Z,3.60
2022-08-04T16:04:01.429Z,4.10
2022-08-04T16:09:05.565Z,3.80
2022-08-04T16:14:10.982Z,5.80
2022-08-04T16:20:01.994Z,4.80
2022-08-04T16:25:07.319Z,6.00
2022-08-04T16:30:15.106Z,5.60
2022-08-04T16:35:28.678Z,4.80
2022-08-04T16:40:39.058Z,4.70
2022-08-04T16:46:04.351Z,4.30
2022-08-04T16:51:10.019Z,4.10
2022-08-04T16:56:17.571Z,4.80
2022-08-04T17:01:33.034Z,4.40
2022-08-04T17:06:44.722Z,4.50
2022-08-04T17:11:48.740Z,6.80
2022-08-04T17:16:53.359Z,5.90
2022-08-04T17:22:07.449Z,4.60
2022-08-04T17:28:20.169Z,8.30
2022-08-04T17:32:36.594Z,7.10
2022-08-04T17:37:53.236Z,8.90
2022-08-04T17:44:03.180Z,5.20
2022-08-04T17:48:30.899Z,5.20
2022-08-04T17:54:02.951Z,7.10
2022-08-04T17:59:55.664Z,7.20
2022-08-04T18:05:07.661Z,6.50
2022-08-04T18:10:33.095Z,5.50
2022-08-04T18:15:40.771Z,6.70
2022-08-04T18:20:50.343Z,5.90
2022-08-04T18:25:53.533Z,6.20
2022-08-04T18:30:56.651Z,6.70
2022-08-04T18:36:37.091Z,7.10
2022-08-04T18:41:23.751Z,7.00
2022-08-04T18:46:27.264Z,7.20
2022-08-04T18:51:30.762Z,14.70
2022-08-04T18:56:37.475Z,88.00
2022-08-04T19:02:12.818Z,24.10
2022-08-04T19:07:24.541Z,123.40
2022-08-04T19:12:29.348Z,162.90
2022-08-04T19:17:53.219Z,231.70
2022-08-04T19:24:11.301Z,158.70
2022-08-04T19:28:21.705Z,83.50
2022-08-04T19:33:25.501Z,66.80
2022-08-04T19:38:35.079Z,41.20
2022-08-04T19:43:43.739Z,33.10
2022-08-04T19:49:00.395Z,28.60
2022-08-04T19:54:14.894Z,24.10
2022-08-04T19:59:20.381Z,21.60
2022-08-04T20:04:25.807Z,19.40
2022-08-04T20:09:29.025Z,14.80
2022-08-04T20:14:40.794Z,12.80
2022-08-04T20:19:51.416Z,11.30
2022-08-04T20:25:10.924Z,11.60
2022-08-04T20:30:22.062Z,11.70
2022-08-04T20:35:26.687Z,16.30
2022-08-04T20:40:30.666Z,15.10
2022-08-04T20:45:56.823Z,14.10
2022-08-04T20:50:57.025Z,12.40
2022-08-04T20:56:00.534Z,12.20
2022-08-04T21:01:03.744Z,12.20
2022-08-04T21:06:08.984Z,13.20
2022-08-04T21:11:13.463Z,12.60
2022-08-04T21:16:54.989Z,13.20
2022-08-04T21:21:41.421Z,13.80
2022-08-04T21:26:54.133Z,13.30
2022-08-04T21:32:00.113Z,12.80
2022-08-04T21:37:04.238Z,12.80
2022-08-04T21:42:29.011Z,12.70
2022-08-04T21:47:46.240Z,13.10
2022-08-04T21:52:52.208Z,13.30
2022-08-04T21:57:55.730Z,13.50
2022-08-04T22:03:03.484Z,12.80
2022-08-04T22:08:06.544Z,12.90
2022-08-04T22:13:23.010Z,12.30
2022-08-04T22:18:27.876Z,13.50
2022-08-04T22:23:45.189Z,13.60
2022-08-04T22:28:51.133Z,13.90
2022-08-04T22:33:56.148Z,13.90
2022-08-04T22:39:06.915Z,13.60
2022-08-04T22:44:15.154Z,14.00
2022-08-04T22:49:19.046Z,14.30
2022-08-04T22:54:29.597Z,13.90
2022-08-04T22:59:32.931Z,14.90
2022-08-04T23:04:36.468Z,14.30
2022-08-04T23:09:49.926Z,13.70
2022-08-04T23:14:58.000Z,13.70
2022-08-04T23:20:01.302Z,14.80
2022-08-04T23:25:04.931Z,15.00
2022-08-04T23:30:08.572Z,14.60
2022-08-04T23:35:11.840Z,14.60
2022-08-04T23:40:32.339Z,15.10
2022-08-04T23:46:04.593Z,18.30
2022-08-04T23:51:14.318Z,15.60
2022-08-04T23:56:19.587Z,14.30
